To NAV CANADA Home Page Login to a new session Search on AWWS site Feedback and Comments Disclaimer Vers la page française équivalente Tips FAQ What's new on the site To the Forecasts and Observations / NOTAM section To "File a Flight Plan" website Publications and other links Update of the User's profile FIC Telephone Numbers My Weather Data Folder Route Weather Data Regional Weather Data Local Weather Data To the Forecasts and Observations / NOTAM section
Request Generated 10/27/2016 at 08:51:15 UTC . Weather information available at that time is displayed.



METAR CYOW 270800Z 06007KT 15SM OVC220 M02/M05 A3045 RMK CI8 SLP318=
METAR CYOW 270700Z 05005KT 15SM OVC240 M03/M06 A3047 RMK CI8 SLP327=
METAR CYOW 270600Z 05005KT 15SM BKN250 M02/M06 A3048 RMK CI7 SLP329=

TAF CYOW 270838Z 2709/2806 06007KT P6SM OVC220
FM271100 08010KT P6SM FEW025 OVC200
FM271500 08012G22KT P6SM FEW012 OVC120
FM271800 09015G25KT 3SM -SNRA FEW020 OVC060
FM272000 09015G25KT 2SM -SNRA BR BKN015 OVC030 PROB40 2720/2723
1/2SM SN VV005
FM272300 08015G25KT 11/2SM -SNRA BR BKN008 OVC012 PROB40
2723/2803 1/2SM SN VV005
FM280300 08015KT 1SM -SNRA BR OVC003
Your time UTC time
Weather data provided by Environment Canada and NAV CANADA